createdAt,value
2023-02-23T00:01:41.775Z,100.00
2023-02-23T00:04:12.693Z,100.00
2023-02-23T00:06:42.820Z,100.00
2023-02-23T00:09:23.268Z,100.00
2023-02-23T00:11:53.746Z,100.00
2023-02-23T00:14:27.550Z,100.00
2023-02-23T00:17:01.443Z,100.00
2023-02-23T00:19:33.563Z,100.00
2023-02-23T00:22:03.958Z,100.00
2023-02-23T00:24:36.752Z,100.00
2023-02-23T00:27:08.512Z,100.00
2023-02-23T00:29:40.811Z,100.00
2023-02-23T00:32:13.772Z,100.00
2023-02-23T00:34:44.226Z,100.00
2023-02-23T00:37:15.109Z,100.00
2023-02-23T00:39:46.045Z,100.00
2023-02-23T00:42:16.391Z,100.00
2023-02-23T00:48:38.782Z,100.00
2023-02-23T00:54:21.774Z,100.00
2023-02-23T00:56:52.802Z,100.00
2023-02-23T00:59:23.655Z,100.00
2023-02-23T01:01:54.087Z,100.00
2023-02-23T01:04:27.880Z,100.00
2023-02-23T01:07:26.455Z,100.00
2023-02-23T01:10:19.231Z,100.00
2023-02-23T01:12:59.225Z,100.00
2023-02-23T01:15:48.657Z,100.00
2023-02-23T01:18:47.278Z,100.00
2023-02-23T01:21:41.497Z,100.00
2023-02-23T01:24:44.140Z,100.00
2023-02-23T01:27:36.693Z,100.00
2023-02-23T01:30:08.272Z,100.00
2023-02-23T01:32:40.692Z,100.00
2023-02-23T01:35:13.693Z,100.00
2023-02-23T01:37:48.064Z,100.00
2023-02-23T01:40:29.082Z,100.00
2023-02-23T01:43:02.001Z,100.00
2023-02-23T01:45:40.771Z,100.00
2023-02-23T01:48:15.315Z,100.00
2023-02-23T01:50:52.862Z,100.00
2023-02-23T01:53:28.616Z,100.00
2023-02-23T01:56:02.551Z,100.00
2023-02-23T01:58:34.293Z,100.00
2023-02-23T02:01:06.146Z,100.00
2023-02-23T02:03:39.412Z,100.00
2023-02-23T02:06:14.594Z,100.00
2023-02-23T02:08:55.080Z,100.00
2023-02-23T02:11:36.591Z,100.00
2023-02-23T02:14:13.535Z,100.00
2023-02-23T02:17:16.555Z,100.00
2023-02-23T02:20:33.336Z,100.00
2023-02-23T02:23:29.247Z,100.00
2023-02-23T02:26:10.161Z,100.00
2023-02-23T02:29:12.374Z,100.00
2023-02-23T02:32:23.762Z,100.00
2023-02-23T02:35:27.146Z,100.00
2023-02-23T02:38:25.494Z,100.00
2023-02-23T02:41:01.577Z,100.00
2023-02-23T02:43:43.332Z,100.00
2023-02-23T02:46:18.958Z,100.00
2023-02-23T02:48:59.843Z,100.00
2023-02-23T02:51:39.920Z,100.00
2023-02-23T02:54:18.622Z,100.00
2023-02-23T02:56:52.328Z,100.00
2023-02-23T02:59:36.595Z,100.00
2023-02-23T03:02:56.119Z,100.00
2023-02-23T03:05:45.404Z,100.00
2023-02-23T03:08:43.189Z,100.00
2023-02-23T03:11:31.035Z,100.00
2023-02-23T03:14:26.862Z,100.00
2023-02-23T03:17:17.627Z,100.00
2023-02-23T03:20:07.553Z,100.00
2023-02-23T03:22:57.351Z,100.00
2023-02-23T03:25:47.753Z,100.00
2023-02-23T03:28:37.732Z,100.00
2023-02-23T03:31:34.054Z,100.00
2023-02-23T03:34:43.209Z,100.00
2023-02-23T03:37:38.898Z,100.00
2023-02-23T03:40:33.305Z,100.00
2023-02-23T03:43:24.227Z,100.00
2023-02-23T03:46:18.807Z,100.00
2023-02-23T03:49:05.607Z,100.00
2023-02-23T03:51:55.251Z,100.00
2023-02-23T03:54:46.688Z,100.00
2023-02-23T03:57:32.429Z,100.00
2023-02-23T04:00:23.579Z,100.00
2023-02-23T04:03:12.336Z,100.00
2023-02-23T04:06:01.305Z,100.00
2023-02-23T04:08:49.467Z,100.00
2023-02-23T04:11:41.029Z,100.00
2023-02-23T04:14:16.943Z,100.00
2023-02-23T04:16:45.476Z,100.00
2023-02-23T04:19:19.144Z,100.00
2023-02-23T04:21:49.822Z,100.00
2023-02-23T04:24:20.312Z,100.00
2023-02-23T04:26:50.680Z,100.00
2023-02-23T04:29:20.908Z,100.00
2023-02-23T04:31:52.341Z,100.00
2023-02-23T04:34:25.827Z,100.00
2023-02-23T04:36:56.436Z,100.00
2023-02-23T04:39:27.428Z,100.00
2023-02-23T04:41:58.201Z,100.00
2023-02-23T04:44:28.662Z,100.00
2023-02-23T04:47:00.364Z,100.00
2023-02-23T04:49:33.968Z,100.00
2023-02-23T04:52:04.345Z,100.00
2023-02-23T04:54:34.565Z,100.00
2023-02-23T04:57:05.125Z,100.00
2023-02-23T04:59:35.523Z,100.00
2023-02-23T05:02:14.859Z,100.00
2023-02-23T05:04:48.385Z,100.00
2023-02-23T05:07:19.089Z,100.00
2023-02-23T05:09:49.759Z,100.00
2023-02-23T05:12:20.312Z,100.00
2023-02-23T05:14:58.151Z,100.00
2023-02-23T05:17:35.371Z,100.00
2023-02-23T05:20:17.925Z,100.00
2023-02-23T05:22:50.025Z,100.00
2023-02-23T05:25:20.949Z,100.00
2023-02-23T05:27:51.585Z,100.00
2023-02-23T05:30:22.257Z,100.00
2023-02-23T05:32:53.360Z,100.00
2023-02-23T05:35:26.672Z,100.00
2023-02-23T05:37:57.224Z,100.00
2023-02-23T05:40:27.575Z,100.00
2023-02-23T05:43:02.097Z,100.00
2023-02-23T05:45:33.163Z,100.00
2023-02-23T05:48:04.193Z,100.00
2023-02-23T05:50:37.375Z,100.00
2023-02-23T05:53:08.600Z,100.00
2023-02-23T05:55:39.610Z,100.00
2023-02-23T05:58:10.111Z,100.00
2023-02-23T06:00:42.850Z,100.00
2023-02-23T06:03:13.259Z,100.00
2023-02-23T06:05:46.758Z,100.00
2023-02-23T06:08:17.196Z,100.00
2023-02-23T06:10:47.919Z,100.00
2023-02-23T06:13:18.932Z,100.00
2023-02-23T06:15:49.695Z,100.00
2023-02-23T06:18:22.735Z,100.00
2023-02-23T06:20:55.671Z,100.00
2023-02-23T06:23:26.296Z,100.00
2023-02-23T06:25:56.781Z,100.00
2023-02-23T06:28:27.348Z,100.00
2023-02-23T06:31:02.711Z,100.00
2023-02-23T06:33:33.609Z,100.00
2023-02-23T06:36:07.880Z,100.00
2023-02-23T06:38:38.435Z,100.00
2023-02-23T06:41:12.978Z,100.00
2023-02-23T06:43:43.467Z,100.00
2023-02-23T06:46:14.021Z,100.00
2023-02-23T06:48:44.495Z,100.00
2023-02-23T06:51:17.946Z,100.00
2023-02-23T06:53:48.539Z,100.00
2023-02-23T06:56:19.235Z,100.00
2023-02-23T06:58:50.783Z,100.00
2023-02-23T07:01:24.486Z,100.00
2023-02-23T07:03:55.021Z,100.00
2023-02-23T07:06:28.261Z,100.00
2023-02-23T07:12:52.194Z,100.00
2023-02-23T07:19:23.674Z,100.00
2023-02-23T07:21:57.019Z,100.00
2023-02-23T07:24:28.562Z,100.00
2023-02-23T07:27:07.824Z,100.00
2023-02-23T07:29:38.537Z,100.00
2023-02-23T07:32:09.613Z,100.00
2023-02-23T07:34:40.221Z,100.00
2023-02-23T07:37:13.630Z,100.00
2023-02-23T07:39:44.301Z,100.00
2023-02-23T07:42:46.753Z,100.00
2023-02-23T07:46:01.486Z,100.00
2023-02-23T07:48:42.506Z,100.00
2023-02-23T07:51:14.449Z,100.00
2023-02-23T07:53:48.687Z,100.00
2023-02-23T07:56:19.124Z,100.00
2023-02-23T07:58:49.287Z,100.00
2023-02-23T08:01:20.046Z,100.00
2023-02-23T08:10:51.135Z,100.00
2023-02-23T08:13:21.765Z,100.00
2023-02-23T08:15:52.506Z,100.00
2023-02-23T08:18:23.039Z,100.00
2023-02-23T08:20:53.656Z,100.00
2023-02-23T08:23:24.383Z,100.00
2023-02-23T08:25:57.657Z,100.00
2023-02-23T08:28:28.361Z,100.00
2023-02-23T08:32:04.626Z,100.00
2023-02-23T08:34:35.512Z,100.00
2023-02-23T08:40:24.125Z,100.00
2023-02-23T08:43:10.915Z,100.00
2023-02-23T08:45:42.766Z,100.00
2023-02-23T08:48:13.396Z,100.00
2023-02-23T08:50:45.153Z,100.00
2023-02-23T08:53:18.352Z,100.00
2023-02-23T08:55:48.818Z,100.00
2023-02-23T08:58:22.096Z,100.00
2023-02-23T09:00:56.695Z,100.00
2023-02-23T09:03:30.960Z,100.00
2023-02-23T09:06:10.291Z,100.00
2023-02-23T09:11:55.672Z,100.00
2023-02-23T09:14:30.531Z,100.00
2023-02-23T09:17:05.803Z,100.00
2023-02-23T09:19:38.583Z,100.00
2023-02-23T09:22:09.511Z,100.00
2023-02-23T09:24:50.299Z,100.00
2023-02-23T09:27:25.118Z,100.00
2023-02-23T09:29:58.971Z,100.00
2023-02-23T09:32:29.751Z,100.00
2023-02-23T09:35:00.254Z,100.00
2023-02-23T09:37:30.751Z,100.00
2023-02-23T09:40:01.124Z,100.00
2023-02-23T09:42:40.567Z,100.00
2023-02-23T09:45:41.668Z,100.00
2023-02-23T09:48:20.635Z,100.00
2023-02-23T09:50:56.922Z,100.00
2023-02-23T09:53:45.060Z,100.00
2023-02-23T09:56:20.057Z,100.00
2023-02-23T09:58:51.617Z,100.00
2023-02-23T10:01:50.115Z,100.00
2023-02-23T10:04:26.754Z,100.00
2023-02-23T10:07:05.623Z,100.00
2023-02-23T10:09:55.832Z,100.00
2023-02-23T10:12:33.433Z,100.00
2023-02-23T10:15:16.842Z,100.00
2023-02-23T10:17:59.519Z,100.00
2023-02-23T10:31:22.807Z,100.00
2023-02-23T10:33:59.103Z,100.00
2023-02-23T10:36:39.154Z,100.00
2023-02-23T10:39:11.697Z,100.00
2023-02-23T10:41:43.073Z,100.00
2023-02-23T10:44:23.055Z,100.00
2023-02-23T10:47:01.584Z,100.00
2023-02-23T10:49:44.437Z,100.00
2023-02-23T10:52:16.786Z,100.00
2023-02-23T10:54:52.041Z,100.00
2023-02-23T10:57:28.926Z,100.00
2023-02-23T11:00:27.982Z,100.00
2023-02-23T11:03:01.231Z,100.00
2023-02-23T11:05:46.498Z,100.00
2023-02-23T11:08:29.683Z,100.00
2023-02-23T11:11:11.660Z,100.00
2023-02-23T11:13:44.877Z,100.00
2023-02-23T11:16:18.492Z,100.00
2023-02-23T11:19:01.489Z,100.00
2023-02-23T11:21:47.361Z,100.00
2023-02-23T11:24:26.182Z,100.00
2023-02-23T11:27:06.689Z,100.00
2023-02-23T11:33:09.713Z,100.00
2023-02-23T11:35:43.310Z,100.00
2023-02-23T11:50:36.197Z,100.00
2023-02-23T11:53:09.030Z,96.98
2023-02-23T11:55:40.612Z,100.00
2023-02-23T11:58:13.945Z,100.00
2023-02-23T12:00:44.954Z,99.68
2023-02-23T12:03:26.400Z,97.23
2023-02-23T12:06:10.661Z,100.00
2023-02-23T12:08:46.681Z,96.93
2023-02-23T12:11:21.688Z,98.58
2023-02-23T12:13:57.396Z,92.64
2023-02-23T12:16:32.174Z,96.48
2023-02-23T12:19:06.289Z,96.52
2023-02-23T12:21:44.851Z,100.00
2023-02-23T12:24:23.200Z,100.00
2023-02-23T12:35:19.154Z,91.65
2023-02-23T12:42:36.484Z,98.93
2023-02-23T12:50:27.114Z,100.00
2023-02-23T13:23:32.772Z,90.61
2023-02-23T13:32:42.085Z,92.79
2023-02-23T13:35:17.756Z,92.67
2023-02-23T13:37:54.786Z,93.84
2023-02-23T13:40:35.029Z,91.83
2023-02-23T13:43:17.990Z,92.10
2023-02-23T13:45:59.381Z,93.41
2023-02-23T13:48:55.218Z,87.62
2023-02-23T13:51:35.752Z,87.98
2023-02-23T13:54:09.940Z,89.23
2023-02-23T13:56:46.312Z,91.30
2023-02-23T13:59:21.407Z,91.50
2023-02-23T14:01:56.118Z,96.49
2023-02-23T14:04:31.768Z,87.89
2023-02-23T14:07:08.142Z,89.20
2023-02-23T14:09:41.023Z,91.77
2023-02-23T14:12:20.990Z,92.53
2023-02-23T14:14:51.303Z,91.21
2023-02-23T14:17:44.591Z,89.59
2023-02-23T14:20:55.892Z,87.84
2023-02-23T14:23:52.754Z,91.82
2023-02-23T14:26:42.734Z,90.45
2023-02-23T14:29:33.590Z,88.82
2023-02-23T14:32:27.137Z,91.98
2023-02-23T14:35:00.078Z,95.24
2023-02-23T14:37:35.690Z,91.01
2023-02-23T14:40:19.516Z,92.55
2023-02-23T14:42:53.289Z,90.32
2023-02-23T14:45:29.684Z,93.08
2023-02-23T14:48:05.220Z,95.65
2023-02-23T14:50:39.660Z,96.61
2023-02-23T14:53:22.244Z,96.53
2023-02-23T14:55:53.011Z,99.57
2023-02-23T14:58:29.079Z,98.83
2023-02-23T15:00:59.859Z,98.40
2023-02-23T15:03:33.583Z,100.00
2023-02-23T15:06:04.496Z,100.00
2023-02-23T15:08:49.560Z,100.00
2023-02-23T15:11:21.972Z,100.00
2023-02-23T15:13:55.079Z,100.00
2023-02-23T15:16:32.722Z,100.00
2023-02-23T15:19:05.581Z,100.00
2023-02-23T15:21:37.097Z,100.00
2023-02-23T15:24:16.735Z,100.00
2023-02-23T15:26:47.642Z,100.00
2023-02-23T15:29:19.875Z,100.00
2023-02-23T15:31:55.698Z,100.00
2023-02-23T15:34:30.163Z,100.00
2023-02-23T15:37:03.861Z,100.00
2023-02-23T15:39:41.009Z,100.00
2023-02-23T15:42:16.693Z,100.00
2023-02-23T15:44:47.134Z,100.00
2023-02-23T15:47:28.744Z,100.00
2023-02-23T15:50:27.656Z,100.00
2023-02-23T15:53:04.466Z,100.00
2023-02-23T15:55:40.790Z,100.00
2023-02-23T15:58:17.501Z,100.00
2023-02-23T16:00:53.256Z,100.00
2023-02-23T16:03:29.909Z,100.00
2023-02-23T16:06:06.987Z,100.00
2023-02-23T16:08:38.121Z,100.00
2023-02-23T16:11:19.477Z,100.00
2023-02-23T16:13:50.477Z,100.00
2023-02-23T16:16:25.683Z,100.00
2023-02-23T16:19:01.649Z,100.00
2023-02-23T16:21:34.911Z,100.00
2023-02-23T16:24:13.496Z,100.00
2023-02-23T16:26:52.196Z,100.00
2023-02-23T16:29:30.227Z,100.00
2023-02-23T16:32:04.261Z,100.00
2023-02-23T16:34:38.156Z,100.00
2023-02-23T16:37:18.849Z,100.00
2023-02-23T16:39:49.799Z,100.00
2023-02-23T16:42:26.869Z,100.00
2023-02-23T16:44:57.355Z,100.00
2023-02-23T16:47:38.688Z,100.00
2023-02-23T16:50:24.537Z,100.00
2023-02-23T16:52:56.780Z,100.00
2023-02-23T16:55:28.916Z,100.00
2023-02-23T16:58:05.777Z,100.00
2023-02-23T17:00:38.149Z,100.00
2023-02-23T17:03:12.228Z,100.00
2023-02-23T17:05:42.887Z,100.00
2023-02-23T17:08:13.262Z,100.00
2023-02-23T17:10:45.537Z,100.00
2023-02-23T17:13:23.019Z,100.00
2023-02-23T17:15:58.293Z,100.00
2023-02-23T17:18:30.730Z,100.00
2023-02-23T17:21:03.543Z,100.00
2023-02-23T17:23:48.417Z,100.00
2023-02-23T17:26:19.110Z,100.00
2023-02-23T17:28:52.650Z,100.00
2023-02-23T17:31:27.021Z,100.00
2023-02-23T17:33:59.315Z,100.00
2023-02-23T17:36:30.414Z,100.00
2023-02-23T17:39:02.198Z,100.00
2023-02-23T17:41:33.641Z,100.00
2023-02-23T17:44:07.071Z,100.00
2023-02-23T17:46:38.250Z,100.00
2023-02-23T17:49:12.478Z,100.00
2023-02-23T17:51:45.593Z,100.00
2023-02-23T17:54:17.006Z,100.00
2023-02-23T17:56:48.988Z,100.00
2023-02-23T17:59:22.484Z,100.00
2023-02-23T18:01:53.091Z,100.00
2023-02-23T18:04:23.685Z,100.00
2023-02-23T18:06:53.945Z,100.00
2023-02-23T18:09:24.390Z,100.00
2023-02-23T18:11:56.923Z,100.00
2023-02-23T18:14:30.541Z,100.00
2023-02-23T18:17:04.165Z,100.00
2023-02-23T18:19:35.168Z,100.00
2023-02-23T18:22:05.692Z,100.00
2023-02-23T18:24:36.449Z,100.00
2023-02-23T18:27:10.459Z,100.00
2023-02-23T18:29:43.864Z,100.00
2023-02-23T18:32:16.134Z,100.00
2023-02-23T18:34:46.671Z,100.00
2023-02-23T18:37:21.731Z,100.00
2023-02-23T18:39:59.482Z,100.00
2023-02-23T18:42:31.877Z,100.00
2023-02-23T18:45:05.493Z,100.00
2023-02-23T18:47:40.113Z,100.00
2023-02-23T18:50:11.952Z,100.00
2023-02-23T18:52:42.960Z,100.00
2023-02-23T18:55:13.515Z,100.00
2023-02-23T18:57:44.444Z,100.00
2023-02-23T19:00:21.476Z,100.00
2023-02-23T19:02:54.078Z,100.00
2023-02-23T19:05:25.542Z,100.00
2023-02-23T19:07:55.911Z,100.00
2023-02-23T19:10:34.706Z,100.00
2023-02-23T19:13:09.625Z,100.00
2023-02-23T19:16:04.231Z,100.00
2023-02-23T19:18:38.158Z,100.00
2023-02-23T19:21:08.988Z,100.00
2023-02-23T19:23:40.961Z,100.00
2023-02-23T19:26:15.321Z,100.00
2023-02-23T19:28:46.393Z,100.00
2023-02-23T19:31:22.571Z,100.00
2023-02-23T19:33:54.243Z,100.00
2023-02-23T19:36:30.099Z,100.00
2023-02-23T19:39:06.424Z,100.00
2023-02-23T19:41:37.606Z,100.00
2023-02-23T19:44:09.753Z,100.00
2023-02-23T19:46:43.256Z,100.00
2023-02-23T19:49:14.089Z,100.00
2023-02-23T19:51:44.762Z,100.00
2023-02-23T19:54:15.799Z,100.00
2023-02-23T19:56:46.752Z,100.00
2023-02-23T19:59:17.462Z,100.00
2023-02-23T20:01:51.731Z,100.00
2023-02-23T20:04:22.506Z,100.00
2023-02-23T20:06:53.032Z,100.00
2023-02-23T20:09:23.466Z,100.00
2023-02-23T20:11:55.702Z,100.00
2023-02-23T20:14:27.190Z,100.00
2023-02-23T20:17:00.620Z,100.00
2023-02-23T20:19:31.669Z,100.00
2023-02-23T20:22:01.957Z,100.00
2023-02-23T20:24:32.498Z,100.00
2023-02-23T20:27:05.197Z,100.00
2023-02-23T20:29:35.950Z,100.00
2023-02-23T20:32:09.593Z,100.00
2023-02-23T20:34:40.242Z,100.00
2023-02-23T20:37:12.703Z,100.00
2023-02-23T20:39:45.803Z,100.00
2023-02-23T20:42:16.429Z,100.00
2023-02-23T20:44:46.996Z,100.00
2023-02-23T20:47:20.651Z,100.00
2023-02-23T20:49:51.198Z,100.00
2023-02-23T20:52:21.700Z,100.00
2023-02-23T20:54:52.388Z,100.00
2023-02-23T20:57:22.949Z,100.00
2023-02-23T20:59:53.456Z,100.00
2023-02-23T21:02:26.986Z,100.00
2023-02-23T21:04:58.179Z,100.00
2023-02-23T21:07:28.669Z,100.00
2023-02-23T21:09:59.595Z,100.00
2023-02-23T21:12:31.184Z,100.00
2023-02-23T21:15:04.803Z,100.00
2023-02-23T21:17:40.733Z,100.00
2023-02-23T21:20:13.393Z,100.00
2023-02-23T21:22:44.294Z,100.00
2023-02-23T21:25:15.832Z,100.00
2023-02-23T21:27:46.573Z,100.00
2023-02-23T21:30:19.920Z,100.00
2023-02-23T21:33:00.488Z,100.00
2023-02-23T21:35:35.440Z,100.00
2023-02-23T21:38:08.607Z,100.00
2023-02-23T21:40:42.700Z,100.00
2023-02-23T21:43:13.190Z,100.00
2023-02-23T21:45:47.020Z,100.00
2023-02-23T21:48:20.444Z,100.00
2023-02-23T21:50:51.088Z,100.00
2023-02-23T21:53:21.733Z,100.00
2023-02-23T21:55:52.326Z,100.00
2023-02-23T21:58:22.566Z,100.00
2023-02-23T22:00:53.769Z,100.00
2023-02-23T22:03:27.544Z,100.00
2023-02-23T22:05:57.835Z,100.00
2023-02-23T22:08:28.475Z,100.00
2023-02-23T22:10:59.004Z,100.00
2023-02-23T22:13:29.408Z,100.00
2023-02-23T22:16:02.154Z,100.00
2023-02-23T22:18:35.884Z,100.00
2023-02-23T22:21:06.617Z,100.00
2023-02-23T22:23:37.799Z,100.00
2023-02-23T22:26:09.758Z,100.00
2023-02-23T22:28:40.729Z,100.00
2023-02-23T22:31:12.801Z,100.00
2023-02-23T22:33:47.426Z,100.00
2023-02-23T22:36:18.508Z,100.00
2023-02-23T22:38:49.630Z,100.00
2023-02-23T22:41:20.593Z,100.00
2023-02-23T22:43:51.242Z,100.00
2023-02-23T22:46:22.183Z,100.00
2023-02-23T22:48:55.225Z,100.00
2023-02-23T22:51:25.862Z,100.00
2023-02-23T22:53:59.032Z,100.00
2023-02-23T22:56:29.804Z,100.00
2023-02-23T22:59:05.471Z,100.00
2023-02-23T23:01:36.137Z,100.00
2023-02-23T23:04:10.919Z,100.00
2023-02-23T23:06:43.327Z,100.00
2023-02-23T23:09:17.074Z,100.00
2023-02-23T23:11:51.081Z,100.00
2023-02-23T23:14:23.776Z,100.00
2023-02-23T23:16:54.339Z,100.00
2023-02-23T23:19:29.369Z,100.00
2023-02-23T23:22:00.983Z,100.00
2023-02-23T23:24:35.144Z,100.00
2023-02-23T23:27:08.473Z,100.00
2023-02-23T23:29:39.189Z,100.00
2023-02-23T23:32:10.054Z,100.00
2023-02-23T23:34:44.309Z,100.00
2023-02-23T23:37:15.903Z,100.00
2023-02-23T23:39:46.812Z,100.00
2023-02-23T23:42:17.499Z,100.00
2023-02-23T23:44:48.380Z,100.00
2023-02-23T23:47:19.139Z,100.00
2023-02-23T23:49:53.065Z,100.00
2023-02-23T23:52:25.758Z,100.00
2023-02-23T23:54:57.278Z,100.00
2023-02-23T23:57:27.694Z,100.00
2023-02-23T23:59:57.983Z,100.00
